createdAt,value
2022-12-16T00:04:46.040Z,33.10
2022-12-16T00:09:48.024Z,31.95
2022-12-16T00:14:50.209Z,31.13
2022-12-16T00:19:52.734Z,32.85
2022-12-16T00:24:54.827Z,31.38
2022-12-16T00:29:57.298Z,30.02
2022-12-16T00:34:59.463Z,32.10
2022-12-16T00:40:01.511Z,29.98
2022-12-16T00:45:04.736Z,32.67
2022-12-16T00:50:07.556Z,32.55
2022-12-16T00:55:10.133Z,33.28
2022-12-16T01:00:14.623Z,34.90
2022-12-16T01:05:19.864Z,33.80
2022-12-16T01:10:26.632Z,33.22
2022-12-16T01:15:28.837Z,34.42
2022-12-16T01:20:32.813Z,34.38
2022-12-16T01:25:35.010Z,35.42
2022-12-16T01:30:37.118Z,33.83
2022-12-16T01:35:55.301Z,35.15
2022-12-16T01:40:58.549Z,35.33
2022-12-16T01:46:16.072Z,35.53
2022-12-16T01:51:24.245Z,34.83
2022-12-16T01:56:30.713Z,34.97
2022-12-16T02:01:32.959Z,35.17
2022-12-16T02:06:35.285Z,33.88
2022-12-16T02:11:54.282Z,33.65
2022-12-16T02:17:07.428Z,35.47
2022-12-16T02:22:43.369Z,35.08
2022-12-16T02:27:59.062Z,35.20
2022-12-16T02:33:18.547Z,34.92
2022-12-16T02:38:26.561Z,34.50
2022-12-16T02:43:43.799Z,35.10
2022-12-16T02:48:45.987Z,34.67
2022-12-16T02:53:50.177Z,34.63
2022-12-16T02:59:03.734Z,35.67
2022-12-16T03:04:20.727Z,36.88
2022-12-16T03:09:28.772Z,35.70
2022-12-16T03:14:34.383Z,35.63
2022-12-16T03:19:39.208Z,35.80
2022-12-16T03:24:42.136Z,36.90
2022-12-16T03:29:58.993Z,36.15
2022-12-16T03:35:14.408Z,37.38
2022-12-16T03:40:16.794Z,35.05
2022-12-16T03:45:25.004Z,36.78
2022-12-16T03:50:32.090Z,35.25
2022-12-16T03:55:34.114Z,35.50
2022-12-16T04:00:36.366Z,33.25
2022-12-16T04:05:38.539Z,32.95
2022-12-16T04:10:59.257Z,32.03
2022-12-16T04:16:20.213Z,31.70
2022-12-16T04:21:41.014Z,30.75
2022-12-16T04:27:01.562Z,28.30
2022-12-16T04:32:03.725Z,29.23
2022-12-16T04:37:24.626Z,26.52
2022-12-16T04:48:05.709Z,19.90
2022-12-16T04:53:26.011Z,19.48
2022-12-16T04:58:46.691Z,18.67
2022-12-16T05:04:07.406Z,17.70
2022-12-16T05:09:28.034Z,16.95
2022-12-16T05:14:48.428Z,15.45
2022-12-16T05:20:08.878Z,14.93
2022-12-16T05:25:31.651Z,14.48
2022-12-16T05:30:52.117Z,13.25
2022-12-16T05:36:12.866Z,14.27
2022-12-16T05:41:33.315Z,15.02
2022-12-16T05:46:53.845Z,15.20
2022-12-16T05:52:14.497Z,15.52
2022-12-16T05:57:35.308Z,15.52
2022-12-16T06:02:56.264Z,16.45
2022-12-16T06:08:16.698Z,15.98
2022-12-16T06:13:37.083Z,17.83
2022-12-16T06:18:57.426Z,14.48
2022-12-16T06:24:17.952Z,18.08
2022-12-16T06:29:38.348Z,18.45
2022-12-16T06:34:59.086Z,20.60
2022-12-16T06:40:19.550Z,19.42
2022-12-16T06:45:40.306Z,18.55
2022-12-16T06:51:01.213Z,18.00
2022-12-16T07:01:42.334Z,15.93
2022-12-16T07:07:03.207Z,16.90
2022-12-16T07:17:43.973Z,16.90
2022-12-16T07:23:13.161Z,17.27
2022-12-16T07:28:38.107Z,17.02
2022-12-16T07:33:58.666Z,17.00
2022-12-16T07:39:19.123Z,18.75
2022-12-16T07:44:39.861Z,17.80
2022-12-16T07:50:00.792Z,18.45
2022-12-16T07:55:21.829Z,21.13
2022-12-16T08:00:42.474Z,19.45
2022-12-16T08:11:23.866Z,19.25
2022-12-16T08:16:45.066Z,19.33
2022-12-16T08:22:05.556Z,19.67
2022-12-16T08:27:26.000Z,20.52
2022-12-16T08:32:46.671Z,16.63
2022-12-16T08:38:12.222Z,15.95
2022-12-16T08:43:35.245Z,14.32
2022-12-16T08:48:56.111Z,14.02
2022-12-16T08:59:37.532Z,15.82
2022-12-16T09:10:18.454Z,14.90
2022-12-16T09:15:55.798Z,14.23
2022-12-16T09:21:16.996Z,13.05
2022-12-16T09:26:37.363Z,14.00
2022-12-16T09:31:58.251Z,13.65
2022-12-16T09:37:19.040Z,10.30
2022-12-16T09:42:58.805Z,9.05
2022-12-16T09:48:29.766Z,9.85
2022-12-16T09:59:18.072Z,8.43
2022-12-16T10:04:38.414Z,9.23
2022-12-16T10:10:27.808Z,7.85
2022-12-16T10:16:16.314Z,7.90
2022-12-16T10:21:44.740Z,7.70
2022-12-16T10:27:22.645Z,7.45
2022-12-16T10:32:57.016Z,7.13
2022-12-16T10:38:17.603Z,6.70
2022-12-16T10:44:01.085Z,7.72
2022-12-16T10:49:21.664Z,7.05
2022-12-16T10:55:05.186Z,6.85
2022-12-16T11:00:28.659Z,7.00
2022-12-16T11:05:52.701Z,6.60
2022-12-16T11:11:13.666Z,6.13
2022-12-16T11:16:46.122Z,6.93
2022-12-16T11:22:07.699Z,6.55
2022-12-16T11:27:45.313Z,6.25
2022-12-16T11:33:12.774Z,6.22
2022-12-16T11:38:44.253Z,5.88
2022-12-16T11:44:10.064Z,5.88
2022-12-16T11:49:37.726Z,6.00
2022-12-16T11:55:12.688Z,5.95
2022-12-16T12:00:34.902Z,5.32
2022-12-16T12:05:59.562Z,6.05
2022-12-16T12:11:41.111Z,6.63
2022-12-16T12:17:17.844Z,5.47
2022-12-16T12:22:46.918Z,5.45
2022-12-16T12:28:16.214Z,5.45
2022-12-16T12:34:03.462Z,5.55
2022-12-16T12:39:32.502Z,5.75
2022-12-16T12:45:09.471Z,5.93
2022-12-16T12:50:47.651Z,6.57
2022-12-16T12:56:20.873Z,8.63
2022-12-16T13:01:46.643Z,7.53
2022-12-16T13:07:07.841Z,7.82
2022-12-16T13:12:28.601Z,7.05
2022-12-16T13:18:18.552Z,7.40
2022-12-16T13:23:54.360Z,6.88
2022-12-16T13:29:49.712Z,7.60
2022-12-16T13:35:22.394Z,7.07
2022-12-16T13:40:43.250Z,6.57
2022-12-16T13:46:23.932Z,6.40
2022-12-16T13:51:57.177Z,6.53
2022-12-16T13:57:20.580Z,5.75
2022-12-16T14:02:41.224Z,5.57
2022-12-16T14:08:03.355Z,5.90
2022-12-16T14:13:31.883Z,5.47
2022-12-16T14:19:11.587Z,6.22
2022-12-16T14:24:42.265Z,5.88
2022-12-16T14:30:03.202Z,5.53
2022-12-16T14:35:31.409Z,5.93
2022-12-16T14:40:52.457Z,6.40
2022-12-16T14:46:13.205Z,5.97
2022-12-16T14:51:47.263Z,6.80
2022-12-16T14:57:07.773Z,6.93
2022-12-16T15:02:45.039Z,7.10
2022-12-16T15:08:06.284Z,7.45
2022-12-16T15:13:35.161Z,7.40
2022-12-16T15:19:04.761Z,7.57
2022-12-16T15:24:29.750Z,6.88
2022-12-16T15:29:53.214Z,7.88
2022-12-16T15:35:13.754Z,8.55
2022-12-16T15:40:47.346Z,8.03
2022-12-16T15:46:09.167Z,11.13
2022-12-16T15:51:45.047Z,10.90
2022-12-16T15:57:25.691Z,10.45
2022-12-16T16:02:49.205Z,10.27
2022-12-16T16:08:09.988Z,10.25
2022-12-16T16:18:52.442Z,10.95
2022-12-16T16:24:13.015Z,10.77
2022-12-16T16:29:33.432Z,11.73
2022-12-16T16:34:54.338Z,11.32
2022-12-16T16:40:14.673Z,11.82
2022-12-16T16:45:35.342Z,11.55
2022-12-16T16:50:56.018Z,10.68
2022-12-16T16:56:20.153Z,10.48
2022-12-16T17:01:41.339Z,11.13
2022-12-16T17:12:35.086Z,13.25
2022-12-16T17:17:55.692Z,14.35
2022-12-16T17:23:16.151Z,15.52
2022-12-16T17:28:36.691Z,21.13
2022-12-16T17:33:57.267Z,18.02
2022-12-16T17:39:18.270Z,16.50
2022-12-16T17:44:39.033Z,16.02
2022-12-16T17:49:59.742Z,14.93
2022-12-16T18:00:40.775Z,17.55
2022-12-16T18:06:01.207Z,16.75
2022-12-16T18:11:22.002Z,17.52
2022-12-16T18:22:03.613Z,21.40
2022-12-16T18:27:24.483Z,21.80
2022-12-16T18:32:46.450Z,22.83
2022-12-16T18:43:27.440Z,19.15
2022-12-16T18:48:48.359Z,20.23
2022-12-16T18:54:09.585Z,20.20
2022-12-16T18:59:30.524Z,20.65
2022-12-16T19:04:51.244Z,20.05
2022-12-16T19:15:34.407Z,22.08
2022-12-16T19:20:58.829Z,25.65
2022-12-16T19:26:20.026Z,30.17
2022-12-16T19:31:40.927Z,32.35
2022-12-16T19:37:01.747Z,34.17
2022-12-16T19:42:22.576Z,31.02
2022-12-16T19:47:43.302Z,33.78
2022-12-16T19:58:24.386Z,37.40
2022-12-16T20:03:45.653Z,43.63
2022-12-16T20:09:10.490Z,39.78
2022-12-16T20:14:30.914Z,33.75
2022-12-16T20:19:51.560Z,32.00
2022-12-16T20:25:12.287Z,30.15
2022-12-16T20:35:56.057Z,26.25
2022-12-16T20:41:19.433Z,25.05
2022-12-16T20:46:39.966Z,28.42
2022-12-16T20:52:00.445Z,20.98
2022-12-16T20:57:21.227Z,19.88
2022-12-16T21:02:41.933Z,20.40
2022-12-16T21:08:03.165Z,19.63
2022-12-16T21:13:32.925Z,18.88
2022-12-16T21:18:53.648Z,25.20
2022-12-16T21:24:14.451Z,29.15
2022-12-16T21:29:34.859Z,28.30
2022-12-16T21:34:56.307Z,29.63
2022-12-16T21:40:16.980Z,30.52
2022-12-16T21:45:37.726Z,31.70
2022-12-16T21:50:58.418Z,30.88
2022-12-16T21:56:19.164Z,28.23
2022-12-16T22:01:39.975Z,29.92
2022-12-16T22:07:00.547Z,28.55
2022-12-16T22:12:21.562Z,29.52
2022-12-16T22:17:42.174Z,28.80
2022-12-16T22:23:03.019Z,28.38
2022-12-16T22:28:24.725Z,29.02
2022-12-16T22:33:49.998Z,29.08
2022-12-16T22:39:11.216Z,23.15
2022-12-16T22:44:31.860Z,23.83
2022-12-16T22:55:13.241Z,24.23
2022-12-16T23:05:55.055Z,20.00
2022-12-16T23:16:37.714Z,21.33
2022-12-16T23:21:58.466Z,23.63
2022-12-16T23:32:39.516Z,20.02
2022-12-16T23:38:00.255Z,18.10
2022-12-16T23:48:41.587Z,20.77
2022-12-16T23:59:22.736Z,22.30
